createdAt,value
2018-12-07T00:01:14.308Z,100473.09
2018-12-07T00:03:42.473Z,100465.72
2018-12-07T00:06:10.872Z,100469.22
2018-12-07T00:08:39.021Z,100463.77
2018-12-07T00:11:07.215Z,100467.77
2018-12-07T00:13:35.477Z,100457.36
2018-12-07T00:16:03.764Z,100452.79
2018-12-07T00:18:31.916Z,100458.64
2018-12-07T00:21:00.145Z,100441.13
2018-12-07T00:23:28.297Z,100439.89
2018-12-07T00:25:56.557Z,100434.84
2018-12-07T00:28:24.861Z,100430.76
2018-12-07T00:30:53.010Z,100424.80
2018-12-07T00:33:21.197Z,100421.22
2018-12-07T00:35:49.356Z,100422.19
2018-12-07T00:38:17.517Z,100415.86
2018-12-07T00:40:45.820Z,100423.06
2018-12-07T00:43:13.981Z,100416.63
2018-12-07T00:45:42.120Z,100420.70
2018-12-07T00:48:10.349Z,100421.22
2018-12-07T00:50:38.629Z,100417.02
2018-12-07T00:53:06.804Z,100410.69
2018-12-07T00:55:38.097Z,100411.57
2018-12-07T00:58:06.545Z,100414.21
2018-12-07T01:00:34.702Z,100409.25
2018-12-07T01:03:02.986Z,100401.95
2018-12-07T01:05:31.253Z,100407.80
2018-12-07T01:07:59.448Z,100405.08
2018-12-07T01:10:27.595Z,100404.20
2018-12-07T01:12:55.784Z,100399.63
2018-12-07T01:15:24.057Z,100396.91
2018-12-07T01:17:52.281Z,100401.39
2018-12-07T01:20:20.508Z,100399.95
2018-12-07T01:22:48.652Z,100402.67
2018-12-07T01:25:16.893Z,100394.98
2018-12-07T01:27:45.040Z,100396.73
2018-12-07T01:30:13.370Z,100391.86
2018-12-07T01:32:41.593Z,100384.56
2018-12-07T01:35:09.977Z,100384.48
2018-12-07T01:37:38.253Z,100391.30
2018-12-07T01:40:06.842Z,100378.64
2018-12-07T01:42:35.212Z,100378.16
2018-12-07T01:45:03.601Z,100378.16
2018-12-07T01:47:33.733Z,100382.72
2018-12-07T01:50:02.100Z,100376.19
2018-12-07T01:52:30.361Z,100376.80
2018-12-07T01:54:58.744Z,100383.52
2018-12-07T01:57:26.909Z,100380.80
2018-12-07T01:59:55.068Z,100382.16
2018-12-07T02:02:23.265Z,100378.55
2018-12-07T02:04:51.424Z,100375.34
2018-12-07T02:07:31.497Z,100371.27
2018-12-07T02:09:59.912Z,100371.74
2018-12-07T02:12:28.676Z,100364.05
2018-12-07T02:14:56.833Z,100360.36
2018-12-07T02:17:24.980Z,100355.88
2018-12-07T02:19:53.399Z,100355.28
2018-12-07T02:22:21.565Z,100344.38
2018-12-07T02:24:49.853Z,100340.30
2018-12-07T02:27:18.232Z,100340.70
2018-12-07T02:29:46.429Z,100336.52
2018-12-07T02:32:14.577Z,100325.14
2018-12-07T02:34:42.750Z,100322.82
2018-12-07T02:37:10.928Z,100315.53
2018-12-07T02:39:39.216Z,100309.99
2018-12-07T02:42:07.601Z,100309.99
2018-12-07T02:44:35.765Z,100300.06
2018-12-07T02:47:04.194Z,100301.42
2018-12-07T02:49:32.406Z,100306.95
2018-12-07T02:52:00.596Z,100303.35
2018-12-07T02:54:28.855Z,100298.87
2018-12-07T02:56:57.169Z,100295.75
2018-12-07T02:59:25.320Z,100296.72
2018-12-07T03:01:53.472Z,100293.23
2018-12-07T03:04:21.656Z,100286.42
2018-12-07T03:06:49.973Z,100275.53
2018-12-07T03:09:18.293Z,100281.94
2018-12-07T03:11:46.445Z,100273.28
2018-12-07T03:14:14.673Z,100270.56
2018-12-07T03:16:42.853Z,100278.65
2018-12-07T03:19:11.120Z,100264.51
2018-12-07T03:21:39.309Z,100268.72
2018-12-07T03:24:07.581Z,100270.08
2018-12-07T03:26:35.757Z,100280.01
2018-12-07T03:29:04.140Z,100275.41
2018-12-07T03:31:32.313Z,100270.48
2018-12-07T03:34:02.348Z,100274.44
2018-12-07T03:36:30.724Z,100264.51
2018-12-07T03:38:58.865Z,100268.72
2018-12-07T03:41:27.168Z,100262.78
2018-12-07T03:43:55.321Z,100256.45
2018-12-07T03:46:23.465Z,100253.62
2018-12-07T03:48:51.675Z,100262.19
2018-12-07T03:51:19.990Z,100252.16
2018-12-07T03:53:48.144Z,100258.02
2018-12-07T03:56:16.420Z,100255.28
2018-12-07T03:58:44.588Z,100252.95
2018-12-07T04:01:12.979Z,100254.31
2018-12-07T04:03:41.828Z,100249.75
2018-12-07T04:06:10.454Z,100243.34
2018-12-07T04:08:38.625Z,100242.94
2018-12-07T04:11:06.893Z,100239.73
2018-12-07T04:13:35.180Z,100227.95
2018-12-07T04:16:03.661Z,100243.42
2018-12-07T04:18:31.832Z,100230.77
2018-12-07T04:21:00.120Z,100227.56
2018-12-07T04:23:28.529Z,100229.98
2018-12-07T04:25:56.754Z,100229.10
2018-12-07T04:28:24.949Z,100226.50
2018-12-07T04:30:53.095Z,100226.50
2018-12-07T04:33:21.254Z,100228.25
2018-12-07T04:35:49.461Z,100222.89
2018-12-07T04:38:17.682Z,100215.20
2018-12-07T04:40:45.823Z,100217.45
2018-12-07T04:43:13.981Z,100205.10
2018-12-07T04:45:42.158Z,100203.22
2018-12-07T04:48:10.349Z,100207.22
2018-12-07T04:50:38.733Z,100201.69
2018-12-07T04:53:07.008Z,100199.92
2018-12-07T04:55:35.477Z,100204.50
2018-12-07T04:58:03.865Z,100206.73
2018-12-07T05:00:32.165Z,100207.22
2018-12-07T05:03:00.402Z,100198.56
2018-12-07T05:05:28.812Z,100201.29
2018-12-07T05:07:56.957Z,100198.08
2018-12-07T05:10:25.162Z,100189.91
2018-12-07T05:12:53.314Z,100184.46
2018-12-07T05:15:21.709Z,100175.50
2018-12-07T05:17:49.865Z,100176.86
2018-12-07T05:20:18.056Z,100175.14
2018-12-07T05:22:46.216Z,100172.02
2018-12-07T05:25:14.406Z,100172.41
2018-12-07T05:27:42.597Z,100179.31
2018-12-07T05:30:10.969Z,100167.54
2018-12-07T05:32:39.109Z,100167.54
2018-12-07T05:35:07.444Z,100163.84
2018-12-07T05:37:35.585Z,100163.06
2018-12-07T05:40:04.078Z,100161.30
2018-12-07T05:42:32.229Z,100157.12
2018-12-07T05:45:00.382Z,100157.12
2018-12-07T05:47:28.697Z,100149.75
2018-12-07T05:49:56.864Z,100141.18
2018-12-07T05:52:25.128Z,100140.30
2018-12-07T05:54:53.334Z,100138.16
2018-12-07T05:57:21.598Z,100142.23
2018-12-07T05:59:49.845Z,100143.59
2018-12-07T06:02:18.121Z,100149.05
2018-12-07T06:04:46.354Z,100148.66
2018-12-07T06:07:14.556Z,100154.50
2018-12-07T06:09:42.701Z,100150.89
2018-12-07T06:12:10.909Z,100149.05
2018-12-07T06:14:39.297Z,100148.66
2018-12-07T06:17:07.529Z,100155.06
2018-12-07T06:19:35.752Z,100163.63
2018-12-07T06:22:04.136Z,100155.95
2018-12-07T06:24:32.307Z,100161.48
2018-12-07T06:27:00.549Z,100153.70
2018-12-07T06:29:28.734Z,100158.75
2018-12-07T06:31:56.964Z,100150.23
2018-12-07T06:34:25.112Z,100158.40
2018-12-07T06:36:53.368Z,100154.31
2018-12-07T06:39:21.599Z,100136.22
2018-12-07T06:41:49.937Z,100143.50
2018-12-07T06:44:18.077Z,100137.18
2018-12-07T06:46:46.302Z,100135.91
2018-12-07T06:49:14.791Z,100134.64
2018-12-07T06:51:44.056Z,100132.48
2018-12-07T06:54:12.296Z,100122.08
2018-12-07T06:56:40.641Z,100112.06
2018-12-07T06:59:08.906Z,100123.56
2018-12-07T07:01:37.301Z,100115.39
2018-12-07T07:04:05.448Z,100113.64
2018-12-07T07:06:33.593Z,100112.27
2018-12-07T07:09:01.748Z,100109.64
2018-12-07T07:11:29.905Z,100116.45
2018-12-07T07:13:58.057Z,100118.69
2018-12-07T07:16:26.212Z,100117.02
2018-12-07T07:18:54.661Z,100111.09
2018-12-07T07:21:22.878Z,100109.73
2018-12-07T07:23:51.128Z,100117.81
2018-12-07T07:26:19.395Z,100117.81
2018-12-07T07:28:47.724Z,100111.88
2018-12-07T07:31:15.895Z,100115.17
2018-12-07T07:33:44.189Z,100109.64
2018-12-07T07:36:12.432Z,100104.59
2018-12-07T07:38:40.619Z,100098.84
2018-12-07T07:41:09.003Z,100093.39
2018-12-07T07:43:37.170Z,100096.69
2018-12-07T07:46:05.440Z,100098.45
2018-12-07T07:48:33.738Z,100093.97
2018-12-07T07:51:01.976Z,100085.23
2018-12-07T07:53:30.209Z,100095.72
2018-12-07T07:55:58.352Z,100093.48
2018-12-07T07:58:26.513Z,100096.69
2018-12-07T08:00:54.693Z,100097.56
2018-12-07T08:03:22.873Z,100094.76
2018-12-07T08:05:51.037Z,100090.77
2018-12-07T08:08:19.369Z,100094.45
2018-12-07T08:10:47.786Z,100086.50
2018-12-07T08:13:16.196Z,100077.94
2018-12-07T08:15:44.593Z,100078.33
2018-12-07T08:18:12.741Z,100074.16
2018-12-07T08:20:41.017Z,100071.43
2018-12-07T08:23:14.748Z,100065.59
2018-12-07T08:25:39.417Z,100056.06
2018-12-07T08:28:07.652Z,100057.33
2018-12-07T08:30:36.808Z,100058.69
2018-12-07T08:33:05.060Z,100056.84
2018-12-07T08:35:33.253Z,100051.28
2018-12-07T08:38:01.491Z,100051.19
2018-12-07T08:40:29.851Z,100046.13
2018-12-07T08:42:58.179Z,100044.20
2018-12-07T08:45:26.597Z,100041.56
2018-12-07T08:47:54.821Z,100040.50
2018-12-07T08:50:23.229Z,100029.03
2018-12-07T08:52:51.585Z,100031.54
2018-12-07T08:55:19.768Z,100027.84
2018-12-07T08:57:47.918Z,100025.03
2018-12-07T09:00:16.341Z,100024.16
2018-12-07T09:02:44.573Z,100013.26
2018-12-07T09:05:12.833Z,100011.11
2018-12-07T09:07:40.980Z,100014.23
2018-12-07T09:10:09.300Z,100001.97
2018-12-07T09:12:37.453Z,100010.53
2018-12-07T09:15:06.124Z,99995.46
2018-12-07T09:17:34.444Z,100009.73
2018-12-07T09:20:02.665Z,99984.84
2018-12-07T09:22:30.987Z,99975.50
2018-12-07T09:24:59.129Z,99981.73
2018-12-07T09:27:27.289Z,99974.52
2018-12-07T09:29:55.493Z,99973.34
2018-12-07T09:32:23.651Z,99976.94
2018-12-07T09:34:52.908Z,99973.44
2018-12-07T09:37:21.149Z,99967.50
2018-12-07T09:39:49.377Z,99965.16
2018-12-07T09:42:17.609Z,99959.81
2018-12-07T09:44:45.750Z,99968.28
2018-12-07T09:47:13.906Z,99969.64
2018-12-07T09:49:42.056Z,99950.96
2018-12-07T09:52:10.207Z,99950.09
2018-12-07T09:54:38.346Z,99956.24
2018-12-07T09:57:06.529Z,99935.30
2018-12-07T09:59:34.679Z,99950.41
2018-12-07T10:02:02.917Z,99936.40
2018-12-07T10:04:31.272Z,99935.59
2018-12-07T10:06:59.818Z,99928.98
2018-12-07T10:09:28.081Z,99945.70
2018-12-07T10:11:56.245Z,99942.11
2018-12-07T10:14:24.388Z,99929.66
2018-12-07T10:16:52.521Z,99932.67
2018-12-07T10:19:20.797Z,99925.48
2018-12-07T10:21:48.954Z,99919.16
2018-12-07T10:24:17.174Z,99900.95
2018-12-07T10:26:45.421Z,99905.83
2018-12-07T10:29:13.572Z,99891.23
2018-12-07T10:31:41.769Z,99895.31
2018-12-07T10:34:09.973Z,99878.16
2018-12-07T10:36:38.116Z,99891.48
2018-12-07T10:39:06.950Z,99876.59
2018-12-07T10:41:35.101Z,99873.97
2018-12-07T10:44:03.461Z,99878.94
2018-12-07T10:46:31.604Z,99865.08
2018-12-07T10:48:59.842Z,99876.76
2018-12-07T10:51:28.073Z,99859.23
2018-12-07T10:53:56.224Z,99861.09
2018-12-07T10:56:24.529Z,99852.91
2018-12-07T10:58:52.716Z,99850.45
2018-12-07T11:01:26.217Z,99844.12
2018-12-07T11:03:59.717Z,99833.22
2018-12-07T11:06:33.174Z,99845.23
2018-12-07T11:09:06.421Z,99819.92
2018-12-07T11:11:44.733Z,99817.00
2018-12-07T11:14:13.369Z,99814.77
2018-12-07T11:16:47.017Z,99805.58
2018-12-07T11:19:20.368Z,99800.91
2018-12-07T11:21:53.805Z,99780.86
2018-12-07T11:24:27.752Z,99768.11
2018-12-07T11:27:01.193Z,99772.58
2018-12-07T11:29:34.825Z,99758.47
2018-12-07T11:32:08.245Z,99756.23
2018-12-07T11:34:46.331Z,99748.83
2018-12-07T11:37:15.249Z,99736.95
2018-12-07T11:39:43.489Z,99738.56
2018-12-07T11:42:11.716Z,99738.25
2018-12-07T11:44:39.875Z,99715.09
2018-12-07T11:47:08.012Z,99722.49
2018-12-07T11:49:36.248Z,99716.38
2018-12-07T11:52:04.473Z,99706.09
2018-12-07T11:54:32.624Z,99695.30
2018-12-07T11:57:00.849Z,99700.36
2018-12-07T11:59:29.004Z,99687.13
2018-12-07T12:01:57.146Z,99692.58
2018-12-07T12:04:25.312Z,99687.13
2018-12-07T12:06:53.452Z,99679.83
2018-12-07T12:09:21.677Z,99683.42
2018-12-07T12:11:49.898Z,99684.16
2018-12-07T12:14:18.128Z,99690.97
2018-12-07T12:16:46.277Z,99680.95
2018-12-07T12:19:14.414Z,99677.48
2018-12-07T12:21:42.569Z,99665.32
2018-12-07T12:24:10.704Z,99655.93
2018-12-07T12:26:38.922Z,99662.11
2018-12-07T12:29:07.188Z,99658.72
2018-12-07T12:31:35.345Z,99647.05
2018-12-07T12:34:03.525Z,99645.58
2018-12-07T12:36:31.677Z,99640.09
2018-12-07T12:39:00.019Z,99635.02
2018-12-07T12:41:28.281Z,99639.33
2018-12-07T12:43:56.437Z,99633.88
2018-12-07T12:46:24.609Z,99628.04
2018-12-07T12:48:52.925Z,99617.14
2018-12-07T12:51:21.082Z,99607.89
2018-12-07T12:53:49.221Z,99608.97
2018-12-07T12:56:17.393Z,99603.13
2018-12-07T12:58:45.809Z,99591.11
2018-12-07T13:01:14.009Z,99590.77
2018-12-07T13:03:42.245Z,99563.91
2018-12-07T13:06:10.533Z,99559.05
2018-12-07T13:08:38.761Z,99550.63
2018-12-07T13:11:07.029Z,99549.27
2018-12-07T13:13:35.184Z,99556.08
2018-12-07T13:16:03.346Z,99560.88
2018-12-07T13:18:31.625Z,99553.25
2018-12-07T13:20:59.900Z,99552.00
2018-12-07T13:23:28.149Z,99536.14
2018-12-07T13:25:56.448Z,99530.06
2018-12-07T13:28:24.724Z,99531.67
2018-12-07T13:30:52.929Z,99517.05
2018-12-07T13:33:21.169Z,99504.30
2018-12-07T13:35:49.444Z,99497.21
2018-12-07T13:38:17.621Z,99487.65
2018-12-07T13:40:45.998Z,99498.33
2018-12-07T13:43:14.410Z,99491.63
2018-12-07T13:45:42.801Z,99473.92
2018-12-07T13:48:11.218Z,99477.03
2018-12-07T13:50:42.340Z,99454.78
2018-12-07T13:53:11.726Z,99452.26
2018-12-07T13:55:40.349Z,99452.64
2018-12-07T13:58:09.014Z,99446.07
2018-12-07T14:00:37.224Z,99448.20
2018-12-07T14:03:05.938Z,99434.94
2018-12-07T14:05:34.449Z,99432.81
2018-12-07T14:08:02.820Z,99413.25
2018-12-07T14:10:32.453Z,99410.42
2018-12-07T14:13:00.856Z,99411.15
2018-12-07T14:15:29.187Z,99407.83
2018-12-07T14:17:58.280Z,99407.83
2018-12-07T14:20:26.700Z,99395.59
2018-12-07T14:22:55.594Z,99394.12
2018-12-07T14:25:23.960Z,99394.86
2018-12-07T14:27:52.421Z,99391.75
2018-12-07T14:30:20.812Z,99386.25
2018-12-07T14:32:49.251Z,99383.04
2018-12-07T14:35:17.983Z,99386.23
2018-12-07T14:37:46.318Z,99384.84
2018-12-07T14:40:15.220Z,99377.66
2018-12-07T14:42:43.523Z,99391.73
2018-12-07T14:45:12.145Z,99394.67
2018-12-07T14:47:40.553Z,99384.77
2018-12-07T14:50:09.236Z,99373.38
2018-12-07T14:52:37.533Z,99374.36
2018-12-07T14:55:06.586Z,99359.77
2018-12-07T14:57:34.885Z,99352.58
2018-12-07T15:00:03.597Z,99345.66
2018-12-07T15:02:32.231Z,99337.59
2018-12-07T15:05:00.540Z,99336.00
2018-12-07T15:07:28.715Z,99343.54
2018-12-07T15:09:56.908Z,99343.41
2018-12-07T15:12:25.241Z,99343.65
2018-12-07T15:14:53.865Z,99337.85
2018-12-07T15:17:22.040Z,99333.50
2018-12-07T15:19:50.496Z,99331.75
2018-12-07T15:22:18.920Z,99321.22
2018-12-07T15:24:47.278Z,99345.45
2018-12-07T15:27:15.656Z,99345.45
2018-12-07T15:29:44.282Z,99342.45
2018-12-07T15:32:12.669Z,99339.84
2018-12-07T15:34:41.620Z,99330.09
2018-12-07T15:37:10.109Z,99326.09
2018-12-07T15:39:38.622Z,99319.75
2018-12-07T15:42:07.120Z,99311.01
2018-12-07T15:44:35.756Z,99302.46
2018-12-07T15:47:04.301Z,99306.54
2018-12-07T15:49:32.517Z,99308.91
2018-12-07T15:52:01.215Z,99298.14
2018-12-07T15:54:29.593Z,99297.89
2018-12-07T15:56:58.189Z,99288.75
2018-12-07T15:59:34.249Z,99282.81
2018-12-07T16:01:56.926Z,99282.63
2018-12-07T16:04:25.117Z,99274.08
2018-12-07T16:06:53.656Z,99266.53
2018-12-07T16:09:22.008Z,99276.31
2018-12-07T16:11:50.411Z,99264.94
2018-12-07T16:14:18.719Z,99257.16
2018-12-07T16:16:47.143Z,99269.89
2018-12-07T16:19:15.656Z,99278.67
2018-12-07T16:21:44.136Z,99264.94
2018-12-07T16:24:12.397Z,99252.31
2018-12-07T16:26:40.552Z,99273.11
2018-12-07T16:29:08.816Z,99252.88
2018-12-07T16:31:37.260Z,99239.69
2018-12-07T16:34:05.715Z,99234.24
2018-12-07T16:36:34.181Z,99236.96
2018-12-07T16:39:02.413Z,99239.47
2018-12-07T16:41:30.680Z,99227.02
2018-12-07T16:43:59.150Z,99218.41
2018-12-07T16:46:27.690Z,99221.02
2018-12-07T16:48:56.013Z,99198.06
2018-12-07T16:51:24.774Z,99176.41
2018-12-07T16:53:53.148Z,99174.81
2018-12-07T16:56:21.743Z,99175.68
2018-12-07T16:58:50.153Z,99155.37
2018-12-07T17:01:18.596Z,99157.50
2018-12-07T17:03:46.903Z,99156.63
2018-12-07T17:06:15.282Z,99163.67
2018-12-07T17:08:44.788Z,99151.12
2018-12-07T17:11:13.541Z,99144.81
2018-12-07T17:13:41.941Z,99131.32
2018-12-07T17:16:10.635Z,99134.80
2018-12-07T17:18:38.841Z,99134.31
2018-12-07T17:21:07.334Z,99129.89
2018-12-07T17:23:35.839Z,99114.99
2018-12-07T17:26:04.240Z,99106.82
2018-12-07T17:28:32.510Z,99122.84
2018-12-07T17:31:00.972Z,99126.20
2018-12-07T17:33:29.472Z,99117.88
2018-12-07T17:35:57.768Z,99108.63
2018-12-07T17:38:26.218Z,99099.70
2018-12-07T17:40:54.647Z,99102.16
2018-12-07T17:43:23.132Z,99098.23
2018-12-07T17:45:51.648Z,99078.69
2018-12-07T17:48:20.117Z,99076.31
2018-12-07T17:50:48.624Z,99058.89
2018-12-07T17:53:17.193Z,99055.80
2018-12-07T17:55:45.605Z,99061.99
2018-12-07T17:58:14.142Z,99068.53
2018-12-07T18:00:42.620Z,99055.56
2018-12-07T18:03:10.926Z,99063.34
2018-12-07T18:05:39.254Z,99049.09
2018-12-07T18:08:07.773Z,99053.30
2018-12-07T18:10:36.508Z,99051.33
2018-12-07T18:13:04.902Z,99050.57
2018-12-07T18:15:34.172Z,99051.94
2018-12-07T18:18:02.397Z,99042.41
2018-12-07T18:20:30.875Z,99049.33
2018-12-07T18:22:59.200Z,99044.75
2018-12-07T18:25:27.673Z,99033.00
2018-12-07T18:27:56.162Z,99023.73
2018-12-07T18:30:24.616Z,99011.23
2018-12-07T18:32:52.867Z,99006.89
2018-12-07T18:35:21.314Z,99006.28
2018-12-07T18:37:49.503Z,99015.64
2018-12-07T18:40:17.803Z,99006.12
2018-12-07T18:42:46.079Z,99014.77
2018-12-07T18:45:15.473Z,98996.61
2018-12-07T18:47:43.851Z,98994.27
2018-12-07T18:50:12.199Z,98988.94
2018-12-07T18:52:40.493Z,98993.28
2018-12-07T18:55:10.306Z,98978.58
2018-12-07T18:57:38.875Z,98983.16
2018-12-07T19:00:08.527Z,98992.18
2018-12-07T19:02:37.102Z,98972.98
2018-12-07T19:05:06.310Z,98976.20
2018-12-07T19:07:34.607Z,98970.76
2018-12-07T19:10:03.156Z,98985.23
2018-12-07T19:12:31.511Z,98983.00
2018-12-07T19:14:59.745Z,98979.52
2018-12-07T19:17:28.265Z,98970.50
2018-12-07T19:19:56.577Z,98960.00
2018-12-07T19:22:24.786Z,98981.75
2018-12-07T19:24:53.273Z,98963.58
2018-12-07T19:27:21.617Z,98964.23
2018-12-07T19:29:50.133Z,98978.42
2018-12-07T19:32:18.771Z,98979.30
2018-12-07T19:34:48.139Z,98974.13
2018-12-07T19:37:16.548Z,98968.05
2018-12-07T19:39:45.266Z,98990.29
2018-12-07T19:42:13.727Z,99002.41
2018-12-07T19:44:42.449Z,99006.23
2018-12-07T19:47:10.828Z,99007.09
2018-12-07T19:49:39.416Z,98988.66
2018-12-07T19:52:08.117Z,98984.45
2018-12-07T19:54:36.610Z,98977.39
2018-12-07T19:57:05.162Z,98979.46
2018-12-07T19:59:33.514Z,98989.47
2018-12-07T20:02:01.764Z,99016.92
2018-12-07T20:04:30.191Z,99015.34
2018-12-07T20:06:58.661Z,99005.57
2018-12-07T20:09:26.928Z,99020.41
2018-12-07T20:11:55.216Z,99007.09
2018-12-07T20:14:23.950Z,99019.10
2018-12-07T20:16:52.157Z,99024.28
2018-12-07T20:19:20.379Z,99026.29
2018-12-07T20:21:48.684Z,99044.34
2018-12-07T20:24:17.047Z,99064.48
2018-12-07T20:26:45.333Z,99068.55
2018-12-07T20:29:13.570Z,99075.14
2018-12-07T20:31:42.466Z,99107.23
2018-12-07T20:34:11.222Z,99110.91
2018-12-07T20:36:39.728Z,99124.29
2018-12-07T20:39:08.385Z,99145.27
2018-12-07T20:41:36.689Z,99163.37
2018-12-07T20:44:05.303Z,99157.49
2018-12-07T20:46:33.589Z,99169.34
2018-12-07T20:49:02.029Z,99180.13
2018-12-07T20:51:30.435Z,99195.00
2018-12-07T20:53:58.680Z,99207.44
2018-12-07T20:56:27.288Z,99209.38
2018-12-07T20:58:56.037Z,99194.61
2018-12-07T21:01:24.507Z,99217.16
2018-12-07T21:04:15.183Z,99203.81
2018-12-07T21:07:58.323Z,99269.17
2018-12-07T21:10:48.672Z,99299.75
2018-12-07T21:14:28.905Z,99295.06
2018-12-07T21:17:07.755Z,99304.84
2018-12-07T21:19:38.079Z,99305.67
2018-12-07T21:22:06.753Z,99283.75
2018-12-07T21:24:35.258Z,99293.23
2018-12-07T21:27:03.915Z,99290.96
2018-12-07T21:29:32.388Z,99321.58
2018-12-07T21:32:02.018Z,99324.20
2018-12-07T21:34:41.842Z,99301.19
2018-12-07T21:37:10.466Z,99309.64
2018-12-07T21:39:46.065Z,99320.22
2018-12-07T21:42:15.131Z,99330.84
2018-12-07T21:44:43.518Z,99333.94
2018-12-07T21:47:11.856Z,99343.31
2018-12-07T21:49:51.673Z,99347.77
2018-12-07T21:52:28.536Z,99371.09
2018-12-07T21:54:56.999Z,99371.20
2018-12-07T21:57:25.349Z,99377.41
2018-12-07T21:59:53.924Z,99380.31
2018-12-07T22:02:22.229Z,99372.06
2018-12-07T22:04:50.540Z,99393.61
2018-12-07T22:07:19.000Z,99406.61
2018-12-07T22:09:47.487Z,99399.17
2018-12-07T22:12:15.722Z,99411.84
2018-12-07T22:14:44.078Z,99415.63
2018-12-07T22:17:12.294Z,99441.23
2018-12-07T22:19:40.544Z,99439.62
2018-12-07T22:22:08.886Z,99444.30
2018-12-07T22:24:37.272Z,99441.52
2018-12-07T22:27:05.468Z,99441.67
2018-12-07T22:29:33.937Z,99457.22
2018-12-07T22:32:02.377Z,99464.31
2018-12-07T22:34:30.911Z,99455.48
2018-12-07T22:36:59.490Z,99471.48
2018-12-07T22:39:28.152Z,99477.20
2018-12-07T22:41:56.539Z,99484.78
2018-12-07T22:44:24.847Z,99479.27
2018-12-07T22:46:53.146Z,99487.19
2018-12-07T22:49:21.310Z,99479.62
2018-12-07T22:51:49.588Z,99467.92
2018-12-07T22:54:17.754Z,99483.69
2018-12-07T22:56:45.984Z,99489.05
2018-12-07T22:59:14.221Z,99486.73
2018-12-07T23:01:42.501Z,99495.84
2018-12-07T23:04:10.861Z,99494.98
2018-12-07T23:06:39.048Z,99501.45
2018-12-07T23:09:08.169Z,99503.60
2018-12-07T23:11:36.321Z,99508.25
2018-12-07T23:14:04.701Z,99515.42
2018-12-07T23:16:33.179Z,99509.12
2018-12-07T23:19:01.420Z,99525.09
2018-12-07T23:21:29.632Z,99529.77
2018-12-07T23:23:57.772Z,99539.53
2018-12-07T23:26:25.982Z,99537.00
2018-12-07T23:28:54.252Z,99547.18
2018-12-07T23:31:22.544Z,99549.67
2018-12-07T23:33:51.138Z,99551.63
2018-12-07T23:36:19.417Z,99554.05
2018-12-07T23:38:47.565Z,99563.83
2018-12-07T23:41:15.796Z,99564.39
2018-12-07T23:43:43.953Z,99561.68
2018-12-07T23:46:12.325Z,99567.48
2018-12-07T23:48:40.491Z,99566.49
2018-12-07T23:51:08.857Z,99567.83
2018-12-07T23:53:37.013Z,99571.50
2018-12-07T23:56:05.324Z,99568.69
2018-12-07T23:58:33.480Z,99583.89
